createdAt,value
2019-02-27T00:01:54.110Z,24.07
2019-02-27T00:04:22.387Z,21.90
2019-02-27T00:06:50.205Z,18.95
2019-02-27T00:09:18.423Z,22.35
2019-02-27T00:11:46.922Z,19.50
2019-02-27T00:14:15.234Z,19.73
2019-02-27T00:16:44.631Z,19.25
2019-02-27T00:19:16.498Z,20.68
2019-02-27T00:21:44.358Z,19.05
2019-02-27T00:24:11.666Z,21.48
2019-02-27T00:26:42.460Z,19.60
2019-02-27T00:29:10.370Z,21.42
2019-02-27T00:31:38.604Z,18.70
2019-02-27T00:34:06.878Z,22.20
2019-02-27T00:36:35.145Z,20.77
2019-02-27T00:39:03.390Z,25.52
2019-02-27T00:41:31.053Z,19.45
2019-02-27T00:44:01.333Z,20.40
2019-02-27T00:46:29.470Z,19.27
2019-02-27T00:48:59.234Z,20.10
2019-02-27T00:51:27.979Z,21.75
2019-02-27T00:53:55.903Z,18.20
2019-02-27T00:56:25.409Z,20.52
2019-02-27T00:58:53.923Z,20.57
2019-02-27T01:01:22.099Z,18.85
2019-02-27T01:03:50.343Z,18.37
2019-02-27T01:06:18.956Z,19.65
2019-02-27T01:08:47.006Z,20.92
2019-02-27T01:11:18.111Z,21.25
2019-02-27T01:13:46.068Z,19.02
2019-02-27T01:16:17.009Z,19.15
2019-02-27T01:18:43.382Z,17.23
2019-02-27T01:21:11.758Z,18.23
2019-02-27T01:23:43.891Z,17.10
2019-02-27T01:26:08.855Z,17.55
2019-02-27T01:28:36.026Z,20.25
2019-02-27T01:31:03.183Z,21.17
2019-02-27T01:33:31.427Z,19.62
2019-02-27T01:35:59.675Z,19.45
2019-02-27T01:38:27.882Z,16.60
2019-02-27T01:40:56.074Z,18.80
2019-02-27T01:43:24.694Z,18.73
2019-02-27T01:45:54.248Z,19.25
2019-02-27T01:48:22.285Z,20.40
2019-02-27T01:50:54.984Z,18.90
2019-02-27T01:53:20.580Z,17.82
2019-02-27T01:55:48.176Z,17.95
2019-02-27T01:58:16.115Z,20.35
2019-02-27T02:00:44.545Z,18.05
2019-02-27T02:03:13.605Z,18.87
2019-02-27T02:05:41.406Z,17.20
2019-02-27T02:08:13.500Z,17.55
2019-02-27T02:10:42.361Z,17.67
2019-02-27T02:13:40.161Z,19.07
2019-02-27T02:16:35.170Z,17.15
2019-02-27T02:19:56.519Z,17.12
2019-02-27T02:22:35.206Z,20.72
2019-02-27T02:25:32.066Z,18.37
2019-02-27T02:28:23.290Z,14.60
2019-02-27T02:31:14.311Z,15.43
2019-02-27T02:34:08.391Z,15.85
2019-02-27T02:37:28.578Z,13.95
2019-02-27T02:40:38.415Z,19.80
2019-02-27T02:43:17.147Z,15.32
2019-02-27T02:46:12.820Z,17.17
2019-02-27T02:48:56.098Z,16.55
2019-02-27T02:51:31.846Z,15.20
2019-02-27T02:54:40.564Z,17.67
2019-02-27T02:57:41.277Z,17.42
2019-02-27T03:00:41.856Z,14.47
2019-02-27T03:03:44.919Z,16.93
2019-02-27T03:06:55.588Z,17.95
2019-02-27T03:10:07.370Z,17.10
2019-02-27T03:13:30.397Z,19.32
2019-02-27T03:16:13.219Z,15.98
2019-02-27T03:19:24.365Z,14.53
2019-02-27T03:22:18.221Z,17.17
2019-02-27T03:25:06.005Z,16.30
2019-02-27T03:28:22.131Z,22.42
2019-02-27T03:31:19.880Z,20.30
2019-02-27T03:34:29.275Z,16.15
2019-02-27T03:37:13.497Z,16.17
2019-02-27T03:40:40.021Z,19.30
2019-02-27T03:43:46.938Z,16.10
2019-02-27T03:46:59.554Z,14.65
2019-02-27T03:50:14.629Z,13.88
2019-02-27T03:53:11.090Z,14.90
2019-02-27T03:56:19.575Z,12.70
2019-02-27T03:59:47.100Z,16.60
2019-02-27T04:02:52.687Z,16.35
2019-02-27T04:05:56.399Z,16.62
2019-02-27T04:08:58.742Z,14.30
2019-02-27T04:11:26.499Z,13.05
2019-02-27T04:13:54.924Z,16.93
2019-02-27T04:16:22.374Z,14.98
2019-02-27T04:18:49.600Z,17.32
2019-02-27T04:21:17.298Z,16.57
2019-02-27T04:23:48.014Z,12.60
2019-02-27T04:26:13.456Z,14.33
2019-02-27T04:28:40.550Z,14.87
2019-02-27T04:31:07.746Z,14.18
2019-02-27T04:33:34.956Z,13.58
2019-02-27T04:36:02.838Z,16.60
2019-02-27T04:38:30.038Z,12.37
2019-02-27T04:40:57.251Z,15.65
2019-02-27T04:43:24.320Z,14.05
2019-02-27T04:45:51.682Z,12.80
2019-02-27T04:48:18.771Z,14.50
2019-02-27T04:50:45.991Z,17.15
2019-02-27T04:53:13.278Z,17.10
2019-02-27T04:55:40.491Z,13.45
2019-02-27T04:58:09.006Z,13.48
2019-02-27T05:00:36.896Z,16.60
2019-02-27T05:03:04.115Z,13.93
2019-02-27T05:05:31.478Z,19.30
2019-02-27T05:07:59.101Z,16.37
2019-02-27T05:10:26.291Z,16.87
2019-02-27T05:12:53.475Z,13.22
2019-02-27T05:15:20.635Z,14.53
2019-02-27T05:17:47.851Z,15.48
2019-02-27T05:20:15.076Z,21.35
2019-02-27T05:22:42.139Z,17.77
2019-02-27T05:25:09.317Z,16.77
2019-02-27T05:27:36.503Z,13.90
2019-02-27T05:30:04.719Z,16.70
2019-02-27T05:32:31.917Z,15.18
2019-02-27T05:34:58.993Z,13.95
2019-02-27T05:37:26.078Z,15.18
2019-02-27T05:39:53.430Z,18.55
2019-02-27T05:42:20.395Z,16.80
2019-02-27T05:44:47.594Z,13.35
2019-02-27T05:47:14.829Z,16.50
2019-02-27T05:49:42.030Z,15.95
2019-02-27T05:52:14.436Z,15.35
2019-02-27T05:54:42.346Z,17.65
2019-02-27T05:57:10.390Z,18.55
2019-02-27T05:59:37.894Z,19.10
2019-02-27T06:02:05.603Z,15.43
2019-02-27T06:04:34.470Z,13.48
2019-02-27T06:07:03.310Z,16.15
2019-02-27T06:09:30.499Z,18.05
2019-02-27T06:11:57.675Z,17.50
2019-02-27T06:14:24.862Z,16.17
2019-02-27T06:16:52.167Z,14.03
2019-02-27T06:19:19.326Z,17.95
2019-02-27T06:21:46.511Z,14.00
2019-02-27T06:24:15.128Z,13.55
2019-02-27T06:26:43.348Z,14.30
2019-02-27T06:29:12.167Z,17.82
2019-02-27T06:31:40.695Z,19.37
2019-02-27T06:34:10.004Z,15.38
2019-02-27T06:36:41.998Z,14.50
2019-02-27T06:39:08.753Z,12.60
2019-02-27T06:41:39.833Z,10.78
2019-02-27T06:44:07.385Z,14.90
2019-02-27T06:46:36.399Z,20.20
2019-02-27T06:49:05.429Z,13.40
2019-02-27T06:51:33.410Z,16.57
2019-02-27T06:54:03.171Z,11.88
2019-02-27T06:56:31.582Z,14.40
2019-02-27T06:59:02.980Z,13.93
2019-02-27T07:01:30.511Z,17.23
2019-02-27T07:03:57.886Z,16.90
2019-02-27T07:06:26.320Z,19.67
2019-02-27T07:08:54.704Z,18.40
2019-02-27T07:11:23.900Z,15.95
2019-02-27T07:13:51.511Z,15.50
2019-02-27T07:16:20.526Z,17.62
2019-02-27T07:18:50.238Z,21.00
2019-02-27T07:21:19.063Z,14.83
2019-02-27T07:23:46.928Z,19.65
2019-02-27T07:26:16.545Z,22.30
2019-02-27T07:28:45.344Z,22.22
2019-02-27T07:31:17.500Z,17.57
2019-02-27T07:33:45.051Z,17.40
2019-02-27T07:36:12.296Z,15.88
2019-02-27T07:38:40.876Z,18.12
2019-02-27T07:41:09.999Z,16.25
2019-02-27T07:43:37.444Z,20.65
2019-02-27T07:46:05.914Z,16.62
2019-02-27T07:48:34.902Z,16.07
2019-02-27T07:51:02.113Z,16.42
2019-02-27T07:53:30.338Z,16.25
2019-02-27T07:55:58.861Z,16.30
2019-02-27T07:58:29.303Z,22.93
2019-02-27T08:00:55.786Z,15.00
2019-02-27T08:03:23.095Z,16.23
2019-02-27T08:05:54.766Z,19.20
2019-02-27T08:08:23.765Z,18.57
2019-02-27T08:10:52.980Z,20.23
2019-02-27T08:13:21.348Z,16.20
2019-02-27T08:15:51.130Z,19.00
2019-02-27T08:18:29.550Z,16.00
2019-02-27T08:20:48.870Z,19.82
2019-02-27T08:23:17.203Z,18.02
2019-02-27T08:25:46.306Z,17.98
2019-02-27T08:28:15.698Z,16.80
2019-02-27T08:30:43.963Z,16.10
2019-02-27T08:33:12.338Z,16.60
2019-02-27T08:35:40.638Z,17.35
2019-02-27T08:38:09.062Z,16.40
2019-02-27T08:40:37.390Z,19.92
2019-02-27T08:43:06.267Z,19.67
2019-02-27T08:45:34.480Z,23.45
2019-02-27T08:48:03.026Z,34.13
2019-02-27T08:50:31.759Z,28.05
2019-02-27T08:53:00.924Z,24.95
2019-02-27T08:55:32.347Z,25.32
2019-02-27T08:58:00.510Z,21.90
2019-02-27T09:00:30.047Z,24.30
2019-02-27T09:03:02.364Z,22.13
2019-02-27T09:05:28.543Z,20.10
2019-02-27T09:08:02.026Z,22.77
2019-02-27T09:10:30.705Z,17.07
2019-02-27T09:13:04.769Z,28.20
2019-02-27T09:15:26.550Z,23.15
2019-02-27T09:17:53.761Z,25.82
2019-02-27T09:20:21.036Z,23.47
2019-02-27T09:22:51.995Z,17.37
2019-02-27T09:25:23.574Z,19.27
2019-02-27T09:27:50.016Z,16.15
2019-02-27T09:30:17.557Z,22.93
2019-02-27T09:32:46.133Z,15.95
2019-02-27T09:35:16.426Z,15.53
2019-02-27T09:37:43.600Z,11.78
2019-02-27T09:40:14.594Z,16.37
2019-02-27T09:42:42.834Z,15.98
2019-02-27T09:45:40.132Z,17.10
2019-02-27T09:48:07.588Z,16.35
2019-02-27T09:50:47.784Z,14.30
2019-02-27T09:53:12.646Z,14.75
2019-02-27T09:55:40.058Z,14.17
2019-02-27T09:58:11.100Z,8.48
2019-02-27T10:00:43.380Z,7.75
2019-02-27T10:03:10.738Z,8.65
2019-02-27T10:05:40.744Z,7.70
2019-02-27T10:08:07.772Z,6.67
2019-02-27T10:10:36.441Z,5.37
2019-02-27T10:13:09.513Z,6.83
2019-02-27T10:15:36.954Z,7.33
2019-02-27T10:18:05.647Z,6.80
2019-02-27T10:20:36.973Z,8.60
2019-02-27T10:23:06.074Z,9.77
2019-02-27T10:25:35.081Z,7.63
2019-02-27T10:28:04.678Z,9.30
2019-02-27T10:30:33.840Z,9.93
2019-02-27T10:33:03.449Z,11.00
2019-02-27T10:35:35.658Z,9.33
2019-02-27T10:38:04.391Z,10.63
2019-02-27T10:40:32.932Z,9.97
2019-02-27T10:43:01.827Z,11.03
2019-02-27T10:45:29.383Z,9.33
2019-02-27T10:48:00.428Z,16.63
2019-02-27T10:50:29.414Z,13.30
2019-02-27T10:52:57.941Z,7.77
2019-02-27T10:55:27.082Z,6.60
2019-02-27T10:57:56.193Z,11.30
2019-02-27T11:00:28.884Z,7.00
2019-02-27T11:02:57.476Z,8.20
2019-02-27T11:05:27.570Z,9.13
2019-02-27T11:07:56.043Z,7.83
2019-02-27T11:10:28.651Z,6.07
2019-02-27T11:12:57.611Z,7.30
2019-02-27T11:15:25.871Z,5.30
2019-02-27T11:17:53.535Z,10.40
2019-02-27T11:20:23.902Z,6.70
2019-02-27T11:22:56.754Z,5.33
2019-02-27T11:25:24.957Z,5.47
2019-02-27T11:27:53.467Z,4.97
2019-02-27T11:30:23.965Z,4.90
2019-02-27T11:32:57.073Z,5.60
2019-02-27T11:35:25.105Z,4.90
2019-02-27T11:37:52.652Z,4.97
2019-02-27T11:40:20.849Z,8.37
2019-02-27T11:42:49.347Z,5.10
2019-02-27T11:45:17.609Z,6.33
2019-02-27T11:47:48.079Z,6.53
2019-02-27T11:50:17.909Z,3.93
2019-02-27T11:52:49.102Z,9.70
2019-02-27T11:55:17.373Z,7.90
2019-02-27T11:57:49.106Z,6.03
2019-02-27T12:00:22.945Z,7.07
2019-02-27T12:02:51.242Z,5.17
2019-02-27T12:05:19.405Z,3.20
2019-02-27T12:07:50.745Z,5.40
2019-02-27T12:10:19.639Z,3.93
2019-02-27T12:12:47.919Z,4.00
2019-02-27T12:15:16.966Z,3.10
2019-02-27T12:17:46.967Z,5.30
2019-02-27T12:20:19.943Z,4.90
2019-02-27T12:22:48.270Z,4.87
2019-02-27T12:25:17.388Z,6.30
2019-02-27T12:27:49.796Z,4.17
2019-02-27T12:30:23.159Z,3.50
2019-02-27T12:32:55.682Z,5.07
2019-02-27T12:35:24.802Z,5.73
2019-02-27T12:37:52.504Z,5.07
2019-02-27T12:40:24.066Z,5.70
2019-02-27T12:42:50.377Z,5.70
2019-02-27T12:45:20.341Z,7.70
2019-02-27T12:47:48.869Z,6.30
2019-02-27T12:50:17.954Z,4.50
2019-02-27T12:52:48.145Z,3.90
2019-02-27T12:55:17.980Z,3.10
2019-02-27T12:57:46.694Z,3.90
2019-02-27T13:00:17.528Z,6.77
2019-02-27T13:02:46.004Z,6.70
2019-02-27T13:05:19.994Z,6.67
2019-02-27T13:07:49.011Z,4.97
2019-02-27T13:10:18.318Z,5.27
2019-02-27T13:12:49.224Z,3.50
2019-02-27T13:15:23.270Z,3.97
2019-02-27T13:17:56.182Z,5.40
2019-02-27T13:20:22.278Z,3.40
2019-02-27T13:22:49.735Z,4.20
2019-02-27T13:25:18.299Z,3.37
2019-02-27T13:27:50.194Z,6.23
2019-02-27T13:30:18.417Z,5.07
2019-02-27T13:32:46.948Z,5.10
2019-02-27T13:35:14.464Z,7.03
2019-02-27T13:37:44.542Z,8.63
2019-02-27T13:40:15.958Z,5.50
2019-02-27T13:42:45.067Z,5.23
2019-02-27T13:45:17.741Z,4.33
2019-02-27T13:47:45.612Z,7.43
2019-02-27T13:50:22.063Z,5.70
2019-02-27T13:52:49.675Z,6.17
2019-02-27T13:55:16.994Z,5.27
2019-02-27T13:57:44.166Z,6.43
2019-02-27T14:00:20.357Z,5.20
2019-02-27T14:02:46.678Z,4.97
2019-02-27T14:05:14.047Z,4.77
2019-02-27T14:07:41.255Z,3.87
2019-02-27T14:10:08.923Z,3.40
2019-02-27T14:12:36.447Z,5.07
2019-02-27T14:15:05.974Z,4.67
2019-02-27T14:17:41.324Z,5.10
2019-02-27T14:20:10.967Z,3.50
2019-02-27T14:22:40.678Z,4.30
2019-02-27T14:25:13.677Z,6.77
2019-02-27T14:27:46.955Z,5.63
2019-02-27T14:30:17.218Z,4.10
2019-02-27T14:32:44.995Z,3.20
2019-02-27T14:35:13.797Z,5.00
2019-02-27T14:37:42.387Z,4.43
2019-02-27T14:40:11.938Z,5.53
2019-02-27T14:42:40.184Z,4.80
2019-02-27T14:45:13.363Z,4.17
2019-02-27T14:47:47.386Z,4.27
2019-02-27T14:50:15.645Z,5.90
2019-02-27T14:52:45.180Z,5.03
2019-02-27T14:55:12.726Z,4.57
2019-02-27T14:57:50.110Z,4.07
2019-02-27T15:00:25.232Z,3.33
2019-02-27T15:02:55.594Z,6.40
2019-02-27T15:05:21.412Z,5.07
2019-02-27T15:07:53.661Z,5.90
2019-02-27T15:10:21.013Z,6.60
2019-02-27T15:12:50.973Z,5.03
2019-02-27T15:15:22.167Z,4.60
2019-02-27T15:17:51.250Z,4.80
2019-02-27T15:20:20.008Z,4.47
2019-02-27T15:22:47.178Z,5.60
2019-02-27T15:25:15.186Z,3.77
2019-02-27T15:27:42.418Z,6.00
2019-02-27T15:30:13.136Z,4.93
2019-02-27T15:32:44.719Z,6.27
2019-02-27T15:35:12.031Z,2.93
2019-02-27T15:37:39.366Z,5.63
2019-02-27T15:40:07.688Z,4.97
2019-02-27T15:42:34.935Z,7.10
2019-02-27T15:45:09.069Z,4.57
2019-02-27T15:47:34.054Z,5.57
2019-02-27T15:50:02.737Z,4.70
2019-02-27T15:52:31.060Z,3.87
2019-02-27T15:54:59.940Z,3.57
2019-02-27T15:57:28.415Z,4.40
2019-02-27T16:00:00.737Z,3.80
2019-02-27T16:02:29.243Z,5.10
2019-02-27T16:04:57.562Z,3.60
2019-02-27T16:07:26.034Z,4.70
2019-02-27T16:09:54.340Z,4.37
2019-02-27T16:12:28.739Z,5.37
2019-02-27T16:14:55.966Z,4.17
2019-02-27T16:17:23.221Z,2.77
2019-02-27T16:19:51.603Z,4.27
2019-02-27T16:22:20.142Z,3.30
2019-02-27T16:24:52.544Z,4.13
2019-02-27T16:27:19.634Z,7.23
2019-02-27T16:29:47.986Z,6.00
2019-02-27T16:32:15.179Z,6.00
2019-02-27T16:34:43.283Z,6.43
2019-02-27T16:37:15.031Z,5.70
2019-02-27T16:39:45.708Z,8.30
2019-02-27T16:42:14.279Z,9.57
2019-02-27T16:44:42.154Z,7.63
2019-02-27T16:47:09.607Z,8.43
2019-02-27T16:49:42.384Z,9.60
2019-02-27T16:52:11.480Z,9.63
2019-02-27T16:54:39.543Z,9.27
2019-02-27T16:57:08.330Z,9.33
2019-02-27T16:59:35.756Z,10.17
2019-02-27T17:02:09.130Z,9.37
2019-02-27T17:04:36.454Z,9.37
2019-02-27T17:07:03.652Z,8.43
2019-02-27T17:09:32.039Z,9.50
2019-02-27T17:12:04.271Z,8.67
2019-02-27T17:14:33.014Z,7.90
2019-02-27T17:17:01.927Z,7.87
2019-02-27T17:19:29.146Z,9.57
2019-02-27T17:21:58.788Z,8.77
2019-02-27T17:24:29.049Z,9.10
2019-02-27T17:27:01.124Z,9.27
2019-02-27T17:29:31.076Z,8.07
2019-02-27T17:31:58.969Z,10.20
2019-02-27T17:34:26.790Z,8.93
2019-02-27T17:37:03.573Z,9.30
2019-02-27T17:39:32.654Z,11.70
2019-02-27T17:42:00.115Z,10.20
2019-02-27T17:44:27.826Z,19.50
2019-02-27T17:46:59.658Z,8.77
2019-02-27T17:49:26.725Z,12.93
2019-02-27T17:52:11.094Z,8.33
2019-02-27T17:54:33.423Z,9.10
2019-02-27T17:57:00.967Z,9.93
2019-02-27T17:59:28.779Z,7.87
2019-02-27T18:01:58.716Z,8.73
2019-02-27T18:04:26.026Z,8.43
2019-02-27T18:06:53.990Z,11.90
2019-02-27T18:09:23.436Z,7.03
2019-02-27T18:11:52.542Z,10.00
2019-02-27T18:14:21.358Z,7.43
2019-02-27T18:16:49.091Z,8.50
2019-02-27T18:19:22.036Z,11.63
2019-02-27T18:21:49.279Z,9.20
2019-02-27T18:24:16.842Z,8.20
2019-02-27T18:26:44.491Z,8.87
2019-02-27T18:29:12.234Z,11.23
2019-02-27T18:32:06.210Z,8.97
2019-02-27T18:34:29.790Z,16.63
2019-02-27T18:36:57.297Z,10.60
2019-02-27T18:39:25.785Z,12.60
2019-02-27T18:41:55.788Z,11.27
2019-02-27T18:44:30.637Z,12.00
2019-02-27T18:46:59.744Z,14.90
2019-02-27T18:49:27.180Z,14.90
2019-02-27T18:51:54.551Z,14.10
2019-02-27T18:54:25.127Z,13.67
2019-02-27T18:56:51.765Z,17.90
2019-02-27T18:59:19.314Z,14.00
2019-02-27T19:01:46.523Z,13.60
2019-02-27T19:04:13.870Z,12.00
2019-02-27T19:06:43.138Z,12.55
2019-02-27T19:09:10.878Z,12.13
2019-02-27T19:11:38.060Z,14.45
2019-02-27T19:14:06.460Z,16.15
2019-02-27T19:16:36.666Z,18.30
2019-02-27T19:19:03.920Z,18.35
2019-02-27T19:21:34.092Z,18.82
2019-02-27T19:24:01.480Z,18.10
2019-02-27T19:26:29.269Z,16.48
2019-02-27T19:28:59.471Z,19.15
2019-02-27T19:31:29.284Z,20.62
2019-02-27T19:33:57.138Z,18.65
2019-02-27T19:36:24.513Z,15.75
2019-02-27T19:38:51.864Z,18.57
2019-02-27T19:41:19.089Z,21.17
2019-02-27T19:43:46.303Z,21.30
2019-02-27T19:46:13.914Z,16.40
2019-02-27T19:48:41.246Z,18.25
2019-02-27T19:51:08.624Z,15.53
2019-02-27T19:53:39.415Z,14.87
2019-02-27T19:56:05.043Z,13.43
2019-02-27T19:58:32.454Z,14.07
2019-02-27T20:00:59.563Z,13.58
2019-02-27T20:03:29.317Z,14.93
2019-02-27T20:05:56.702Z,16.93
2019-02-27T20:08:26.429Z,13.72
2019-02-27T20:10:54.066Z,11.85
2019-02-27T20:13:21.572Z,13.45
2019-02-27T20:15:50.140Z,10.43
2019-02-27T20:18:18.293Z,12.47
2019-02-27T20:20:45.465Z,14.28
2019-02-27T20:23:12.902Z,13.50
2019-02-27T20:25:42.952Z,14.13
2019-02-27T20:28:09.569Z,12.60
2019-02-27T20:30:37.758Z,11.75
2019-02-27T20:33:05.983Z,14.03
2019-02-27T20:35:34.809Z,14.90
2019-02-27T20:38:03.079Z,14.85
2019-02-27T20:40:34.219Z,12.33
2019-02-27T20:43:02.027Z,15.83
2019-02-27T20:45:30.305Z,16.62
2019-02-27T20:48:01.687Z,10.45
2019-02-27T20:50:35.931Z,13.65
2019-02-27T20:53:04.694Z,14.53
2019-02-27T20:55:33.208Z,11.55
2019-02-27T20:58:02.220Z,11.30
2019-02-27T21:00:29.775Z,11.03
2019-02-27T21:03:00.679Z,9.63
2019-02-27T21:05:29.782Z,9.93
2019-02-27T21:08:02.028Z,11.75
2019-02-27T21:10:28.515Z,12.28
2019-02-27T21:12:57.624Z,9.78
2019-02-27T21:15:29.261Z,10.88
2019-02-27T21:17:58.530Z,11.70
2019-02-27T21:20:28.711Z,14.73
2019-02-27T21:22:59.805Z,11.40
2019-02-27T21:25:25.982Z,11.15
2019-02-27T21:27:53.858Z,11.70
2019-02-27T21:30:21.843Z,9.28
2019-02-27T21:32:49.665Z,13.43
2019-02-27T21:35:17.770Z,14.28
2019-02-27T21:37:46.631Z,9.80
2019-02-27T21:40:15.192Z,10.13
2019-02-27T21:42:43.738Z,11.35
2019-02-27T21:45:13.733Z,10.30
2019-02-27T21:47:41.942Z,11.83
2019-02-27T21:50:12.137Z,9.53
2019-02-27T21:52:40.326Z,14.33
2019-02-27T21:55:12.892Z,11.10
2019-02-27T21:57:40.322Z,11.88
2019-02-27T22:00:14.027Z,10.70
2019-02-27T22:02:43.221Z,12.07
2019-02-27T22:05:18.528Z,10.90
2019-02-27T22:07:41.718Z,10.72
2019-02-27T22:10:10.300Z,9.73
2019-02-27T22:12:39.060Z,13.15
2019-02-27T22:15:13.104Z,12.15
2019-02-27T22:17:42.106Z,10.23
2019-02-27T22:20:10.778Z,11.00
2019-02-27T22:22:46.854Z,12.47
2019-02-27T22:25:14.122Z,9.50
2019-02-27T22:27:43.300Z,9.85
2019-02-27T22:30:13.063Z,11.85
2019-02-27T22:32:47.650Z,11.12
2019-02-27T22:35:13.660Z,13.60
2019-02-27T22:37:42.581Z,13.60
2019-02-27T22:40:12.262Z,12.75
2019-02-27T22:42:39.776Z,14.40
2019-02-27T22:45:07.895Z,12.05
2019-02-27T22:47:35.677Z,13.75
2019-02-27T22:50:06.031Z,12.78
2019-02-27T22:52:32.121Z,15.28
2019-02-27T22:55:00.414Z,17.45
2019-02-27T22:57:28.771Z,13.60
2019-02-27T22:59:56.108Z,14.18
2019-02-27T23:02:24.642Z,11.97
2019-02-27T23:04:53.081Z,13.80
2019-02-27T23:07:21.678Z,15.78
2019-02-27T23:09:49.839Z,14.90
2019-02-27T23:12:18.567Z,17.02
2019-02-27T23:14:46.946Z,15.72
2019-02-27T23:17:15.139Z,15.32
2019-02-27T23:19:46.125Z,16.10
2019-02-27T23:22:12.624Z,17.65
2019-02-27T23:24:43.605Z,19.30
2019-02-27T23:27:11.053Z,16.32
2019-02-27T23:29:40.023Z,17.67
2019-02-27T23:32:09.078Z,16.00
2019-02-27T23:34:38.452Z,17.75
2019-02-27T23:37:07.844Z,16.95
2019-02-27T23:39:35.129Z,19.15
2019-02-27T23:42:03.852Z,18.77
2019-02-27T23:44:31.030Z,22.02
2019-02-27T23:46:59.203Z,17.23
2019-02-27T23:49:27.495Z,21.05
2019-02-27T23:51:55.748Z,21.77
2019-02-27T23:54:23.982Z,21.23
2019-02-27T23:56:52.140Z,26.57
2019-02-27T23:59:21.418Z,23.65
